Time;durP1;ratioP1;P1;durP2;ratioP2;P2;SDS_P1;SDS_P2;PMS_P1;PMS_P2;Temp;Humidity;BMP_temperature;BMP_pressure;BME280_temperature;BME280_humidity;BME280_pressure;Samples;Min_cycle;Max_cycle;Signal;HPM_P1;HPM_P2
2021/03/09 00:01:23;;;;;;;40.92;17.00;;;4.80;99.90;;;;;;5069022;28;20024;-67
2021/03/09 00:03:49;;;;;;;33.65;15.65;;;4.90;99.90;;;;;;5050804;28;20033;-69
2021/03/09 00:06:14;;;;;;;40.22;16.88;;;4.80;99.90;;;;;;5049854;28;20028;-72
2021/03/09 00:08:40;;;;;;;42.83;17.98;;;4.80;99.90;;;;;;5044604;28;20069;-69
2021/03/09 00:11:05;;;;;;;36.63;15.65;;;4.90;99.90;;;;;;5060375;28;20041;-72
2021/03/09 00:13:31;;;;;;;38.72;17.25;;;4.90;99.90;;;;;;5065949;28;20135;-71
2021/03/09 00:15:56;;;;;;;42.20;17.98;;;4.90;99.90;;;;;;5060794;28;20028;-69
2021/03/09 00:18:22;;;;;;;41.38;18.08;;;4.80;99.90;;;;;;5064601;28;20166;-68
2021/03/09 00:20:48;;;;;;;44.10;18.95;;;4.90;99.90;;;;;;5068732;28;20107;-70
2021/03/09 00:23:13;;;;;;;49.72;20.83;;;4.90;99.90;;;;;;5075389;28;20020;-68
2021/03/09 00:25:39;;;;;;;43.95;18.40;;;4.80;99.90;;;;;;5079886;28;20023;-67
2021/03/09 00:28:05;;;;;;;50.50;18.08;;;4.80;99.90;;;;;;5067121;28;20036;-69
2021/03/09 00:30:30;;;;;;;48.22;20.20;;;4.80;99.90;;;;;;5076744;28;20667;-69
2021/03/09 00:32:56;;;;;;;50.22;21.33;;;4.80;99.90;;;;;;5080911;28;20024;-69
2021/03/09 00:35:21;;;;;;;55.95;21.42;;;4.80;99.90;;;;;;5045036;28;20028;-71
2021/03/09 00:37:47;;;;;;;52.47;21.08;;;4.80;99.90;;;;;;5073225;28;20107;-68
2021/03/09 00:40:12;;;;;;;60.30;22.27;;;4.70;99.90;;;;;;5058990;28;20020;-67
2021/03/09 00:42:38;;;;;;;50.78;21.90;;;4.70;99.90;;;;;;5069635;28;20055;-69
2021/03/09 00:45:04;;;;;;;50.28;21.88;;;4.80;99.90;;;;;;5059654;28;20107;-71
2021/03/09 00:47:30;;;;;;;51.72;22.33;;;4.80;99.90;;;;;;5066769;28;20128;-68
2021/03/09 00:49:55;;;;;;;58.22;22.45;;;4.80;99.90;;;;;;5057363;28;20537;-68
2021/03/09 00:52:21;;;;;;;67.97;23.95;;;4.80;99.90;;;;;;5072019;28;20077;-69
2021/03/09 00:54:48;;;;;;;63.20;24.55;;;4.80;99.90;;;;;;5066964;28;20020;-70
2021/03/09 00:57:14;;;;;;;57.42;23.83;;;4.80;99.90;;;;;;5068954;28;20021;-71
2021/03/09 00:59:40;;;;;;;50.78;23.50;;;4.80;99.90;;;;;;5066407;28;20020;-69
2021/03/09 01:02:05;;;;;;;61.22;25.55;;;4.80;99.90;;;;;;5068609;28;20017;-74
2021/03/09 01:04:31;;;;;;;59.30;25.30;;;4.80;99.90;;;;;;5049804;28;20055;-68
2021/03/09 01:06:56;;;;;;;59.60;23.83;;;4.80;99.90;;;;;;5067959;28;20101;-72
2021/03/09 01:09:22;;;;;;;59.67;23.65;;;4.80;99.90;;;;;;5067668;28;20032;-70
2021/03/09 01:11:47;;;;;;;61.58;25.05;;;4.70;99.90;;;;;;5071227;28;20099;-72
2021/03/09 01:14:13;;;;;;;60.42;24.33;;;4.80;99.90;;;;;;5068628;28;20017;-73
2021/03/09 01:16:38;;;;;;;60.00;23.15;;;4.80;99.90;;;;;;5058987;28;20415;-68
2021/03/09 01:19:04;;;;;;;61.45;24.80;;;4.70;99.90;;;;;;5069232;28;20031;-67
2021/03/09 01:21:29;;;;;;;69.75;25.70;;;4.70;99.90;;;;;;5072557;28;20035;-68
2021/03/09 01:23:55;;;;;;;60.92;24.73;;;4.70;99.90;;;;;;5068154;28;20366;-68
2021/03/09 01:26:20;;;;;;;68.93;25.40;;;4.80;99.90;;;;;;5053904;28;20138;-69
2021/03/09 01:28:46;;;;;;;72.57;26.80;;;4.90;99.90;;;;;;5072282;28;20077;-71
2021/03/09 01:31:11;;;;;;;70.00;27.98;;;4.80;99.90;;;;;;5064123;28;20037;-72
2021/03/09 01:33:37;;;;;;;73.28;27.77;;;4.80;99.90;;;;;;5066060;28;20627;-72
2021/03/09 01:36:03;;;;;;;66.55;27.63;;;4.70;99.90;;;;;;5053044;28;20047;-69
2021/03/09 01:38:28;;;;;;;74.30;26.73;;;4.80;99.90;;;;;;5058682;28;20017;-69
2021/03/09 01:40:54;;;;;;;66.95;26.13;;;4.80;99.90;;;;;;5059346;28;20017;-69
2021/03/09 01:43:20;;;;;;;68.60;26.75;;;4.80;99.90;;;;;;5060654;28;20477;-74
2021/03/09 01:45:45;;;;;;;71.88;29.73;;;4.80;99.90;;;;;;5067878;28;20105;-68
2021/03/09 01:48:12;;;;;;;66.88;26.23;;;4.80;99.90;;;;;;5059660;28;20032;-72
2021/03/09 01:50:42;;;;;;;69.93;26.75;;;4.80;99.90;;;;;;5067741;28;20029;-71
2021/03/09 01:53:08;;;;;;;64.32;27.20;;;4.80;99.90;;;;;;5054758;28;20048;-73
2021/03/09 01:55:35;;;;;;;64.00;26.40;;;4.80;99.90;;;;;;5068215;28;20300;-69
2021/03/09 01:58:08;;;;;;;69.30;27.05;;;4.80;99.90;;;;;;5068162;28;20116;-70
2021/03/09 02:00:34;;;;;;;72.22;26.70;;;4.80;99.90;;;;;;5068152;28;20090;-69
2021/03/09 02:03:00;;;;;;;70.15;26.42;;;4.80;99.90;;;;;;5067363;28;20060;-71
2021/03/09 02:05:25;;;;;;;82.68;30.08;;;4.80;99.90;;;;;;5068252;28;20028;-69
2021/03/09 02:07:52;;;;;;;71.50;28.80;;;4.80;99.90;;;;;;5065871;28;20207;-66
2021/03/09 02:10:18;;;;;;;75.25;28.35;;;4.70;99.90;;;;;;5050894;28;20028;-69
2021/03/09 02:13:04;;;;;;;75.55;27.10;;;4.70;99.90;;;;;;5058275;28;20021;-68
2021/03/09 02:15:34;;;;;;;75.07;28.27;;;4.80;99.90;;;;;;5051373;28;20078;-72
2021/03/09 02:18:18;;;;;;;75.57;28.60;;;4.80;99.90;;;;;;5062888;28;20023;-70
2021/03/09 02:21:07;;;;;;;82.70;29.38;;;4.90;99.90;;;;;;5051113;28;20022;-70
2021/03/09 02:23:54;;;;;;;79.55;28.83;;;4.90;99.90;;;;;;5055454;28;20376;-70
2021/03/09 02:27:10;;;;;;;73.45;27.08;;;4.80;99.90;;;;;;5067380;28;20035;-70
2021/03/09 02:30:01;;;;;;;75.47;29.35;;;4.90;99.90;;;;;;5024222;28;20041;-67
2021/03/09 02:32:30;;;;;;;94.22;32.25;;;4.90;99.90;;;;;;5056056;28;20123;-68
2021/03/09 02:34:58;;;;;;;76.43;30.17;;;4.80;99.90;;;;;;5079241;28;20016;-69
2021/03/09 02:37:30;;;;;;;90.93;33.55;;;4.90;99.90;;;;;;5070997;28;20478;-71
2021/03/09 02:39:57;;;;;;;91.75;33.75;;;4.80;99.90;;;;;;5080559;28;20026;-70
2021/03/09 02:42:26;;;;;;;83.78;32.05;;;4.90;99.90;;;;;;5075696;28;20036;-70
2021/03/09 02:45:01;;;;;;;92.22;32.70;;;4.90;99.90;;;;;;5082188;28;20036;-72
2021/03/09 02:47:30;;;;;;;85.80;32.72;;;4.90;99.90;;;;;;5068962;28;20070;-71
2021/03/09 02:49:58;;;;;;;92.65;34.25;;;4.90;99.90;;;;;;5069579;28;20028;-72
2021/03/09 02:52:26;;;;;;;85.72;33.75;;;4.90;99.90;;;;;;5074153;28;20042;-69
2021/03/09 02:54:52;;;;;;;89.00;32.55;;;4.90;99.90;;;;;;5073747;28;20098;-68
2021/03/09 02:57:19;;;;;;;90.47;34.85;;;4.90;99.90;;;;;;5074579;28;20020;-70
2021/03/09 02:59:45;;;;;;;96.22;36.28;;;4.90;99.90;;;;;;5072610;28;20111;-71
2021/03/09 03:02:19;;;;;;;80.97;31.27;;;4.90;99.90;;;;;;5077693;28;20024;-73
2021/03/09 03:04:48;;;;;;;88.07;33.45;;;5.00;99.90;;;;;;5073240;28;20021;-68
2021/03/09 03:07:15;;;;;;;88.32;32.70;;;5.10;99.90;;;;;;5071884;28;20036;-71
2021/03/09 03:09:43;;;;;;;91.65;34.58;;;5.00;99.90;;;;;;5071475;28;20024;-74
2021/03/09 03:12:11;;;;;;;98.55;35.17;;;5.00;99.90;;;;;;5070272;28;20056;-69
2021/03/09 03:14:38;;;;;;;83.57;34.97;;;5.00;99.90;;;;;;5070358;28;20600;-70
2021/03/09 03:17:04;;;;;;;104.60;37.45;;;5.00;99.90;;;;;;5068572;28;20055;-68
2021/03/09 03:19:32;;;;;;;97.90;36.47;;;4.90;99.90;;;;;;5077404;28;20489;-71
2021/03/09 03:21:59;;;;;;;85.20;34.25;;;4.90;99.90;;;;;;5055252;28;20039;-74
2021/03/09 03:24:26;;;;;;;86.47;36.50;;;5.00;99.90;;;;;;5070045;28;20036;-75
2021/03/09 03:26:53;;;;;;;99.38;37.17;;;4.90;99.90;;;;;;5048101;28;20036;-72
2021/03/09 03:29:20;;;;;;;103.07;38.38;;;4.90;99.90;;;;;;5062624;28;20024;-73
2021/03/09 03:31:47;;;;;;;98.13;37.67;;;4.90;99.90;;;;;;5053930;28;20287;-73
2021/03/09 03:34:13;;;;;;;102.28;39.05;;;5.00;99.90;;;;;;5060275;28;20028;-73
2021/03/09 03:36:39;;;;;;;90.03;35.20;;;5.00;99.90;;;;;;5071406;28;20029;-74
2021/03/09 03:39:06;;;;;;;102.95;38.70;;;5.00;99.90;;;;;;5071015;28;20428;-70
2021/03/09 03:41:31;;;;;;;102.57;37.85;;;5.10;99.90;;;;;;5066323;28;20056;-73
2021/03/09 03:43:57;;;;;;;92.15;36.00;;;5.10;99.90;;;;;;5066291;28;20654;-73
2021/03/09 03:46:23;;;;;;;85.95;34.67;;;5.10;99.90;;;;;;5068170;28;20036;-78
2021/03/09 03:48:49;;;;;;;98.85;36.55;;;5.10;99.90;;;;;;5069043;28;20638;-73
2021/03/09 03:51:17;;;;;;;93.63;35.85;;;5.10;99.90;;;;;;5069520;28;20113;-72
2021/03/09 03:53:57;;;;;;;88.75;36.72;;;5.10;99.90;;;;;;5069460;28;20025;-73
2021/03/09 03:56:40;;;;;;;100.95;38.15;;;5.00;99.90;;;;;;5068801;28;20520;-76
2021/03/09 03:59:13;;;;;;;93.65;37.20;;;5.10;99.90;;;;;;5069769;28;20028;-73
2021/03/09 04:01:40;;;;;;;113.25;41.30;;;5.10;99.90;;;;;;5068897;28;20074;-71
2021/03/09 04:04:13;;;;;;;97.35;39.45;;;5.10;99.90;;;;;;5070027;28;20163;-71
2021/03/09 04:06:47;;;;;;;108.25;39.80;;;5.10;99.90;;;;;;5041042;28;20493;-72
2021/03/09 04:09:13;;;;;;;103.72;40.42;;;5.10;99.90;;;;;;5046225;28;20123;-68
2021/03/09 04:11:40;;;;;;;111.85;39.88;;;5.20;99.90;;;;;;5051906;28;20534;-73
2021/03/09 04:14:08;;;;;;;103.40;41.20;;;5.10;99.90;;;;;;5069622;28;20024;-71
2021/03/09 04:16:36;;;;;;;98.25;39.53;;;5.20;99.90;;;;;;5069509;28;20028;-70
2021/03/09 04:19:03;;;;;;;126.20;45.30;;;5.20;99.90;;;;;;5059646;28;20020;-72
2021/03/09 04:21:29;;;;;;;141.02;47.60;;;5.20;99.90;;;;;;5069259;28;20036;-72
2021/03/09 04:23:56;;;;;;;133.68;45.30;;;5.20;99.90;;;;;;5067540;28;20069;-71
2021/03/09 04:26:23;;;;;;;134.98;46.83;;;5.30;99.90;;;;;;5064186;28;20031;-70
2021/03/09 04:28:50;;;;;;;136.88;47.67;;;5.30;99.90;;;;;;5068039;28;20032;-68
2021/03/09 04:31:17;;;;;;;129.57;47.00;;;5.30;99.90;;;;;;5050912;28;20025;-66
2021/03/09 04:33:43;;;;;;;118.30;46.38;;;5.30;99.90;;;;;;5067660;28;20051;-75
2021/03/09 04:36:10;;;;;;;145.35;49.45;;;5.30;99.90;;;;;;5068207;28;20674;-72
2021/03/09 04:38:36;;;;;;;127.93;46.78;;;5.30;99.90;;;;;;5066843;28;20655;-74
2021/03/09 04:41:02;;;;;;;141.15;49.42;;;5.40;99.90;;;;;;5070562;28;20481;-70
2021/03/09 04:43:28;;;;;;;149.55;52.45;;;5.40;99.90;;;;;;5051802;28;20040;-72
2021/03/09 04:45:57;;;;;;;137.93;49.78;;;5.40;99.90;;;;;;5070317;28;20052;-71
2021/03/09 04:48:24;;;;;;;149.98;51.65;;;5.40;99.90;;;;;;5053518;28;20105;-73
2021/03/09 04:50:51;;;;;;;136.95;49.25;;;5.40;99.90;;;;;;5070502;28;20091;-74
2021/03/09 04:53:17;;;;;;;140.95;50.72;;;5.50;99.90;;;;;;5068350;28;20588;-70
2021/03/09 04:55:42;;;;;;;146.80;50.75;;;5.50;99.90;;;;;;5067978;28;20033;-73
2021/03/09 04:58:08;;;;;;;148.88;51.75;;;5.60;99.90;;;;;;5068802;28;20031;-70
2021/03/09 05:00:33;;;;;;;145.18;48.53;;;5.60;99.90;;;;;;5066089;28;20020;-72
2021/03/09 05:02:59;;;;;;;127.70;47.95;;;5.60;99.90;;;;;;5062297;28;20040;-70
2021/03/09 05:05:25;;;;;;;150.73;49.30;;;5.60;99.90;;;;;;5068175;28;20082;-74
2021/03/09 05:07:51;;;;;;;149.38;48.13;;;5.60;99.90;;;;;;5050089;28;20545;-73
2021/03/09 05:10:18;;;;;;;158.02;50.50;;;5.70;99.90;;;;;;5068276;28;20048;-74
2021/03/09 05:12:47;;;;;;;134.63;45.75;;;5.70;99.90;;;;;;5054608;28;20062;-72
2021/03/09 05:15:13;;;;;;;171.73;52.80;;;5.70;99.90;;;;;;5067639;28;20059;-72
2021/03/09 05:17:39;;;;;;;152.82;51.60;;;5.70;99.90;;;;;;5048901;28;20419;-71
2021/03/09 05:20:06;;;;;;;118.40;46.47;;;5.70;99.90;;;;;;5054265;28;20016;-69
2021/03/09 05:22:32;;;;;;;146.25;48.22;;;5.70;99.90;;;;;;5058451;28;20052;-71
2021/03/09 05:24:58;;;;;;;148.45;49.40;;;5.70;99.90;;;;;;5066753;28;20160;-75
2021/03/09 05:27:24;;;;;;;147.45;49.58;;;5.70;99.90;;;;;;5056608;28;20033;-70
2021/03/09 05:29:49;;;;;;;143.38;47.35;;;5.80;99.90;;;;;;5071142;28;20111;-73
2021/03/09 05:32:15;;;;;;;140.07;45.40;;;5.90;99.90;;;;;;5081068;28;20497;-71
2021/03/09 05:34:40;;;;;;;121.82;44.78;;;5.80;99.90;;;;;;5055961;28;20067;-69
2021/03/09 05:37:09;;;;;;;127.97;43.40;;;5.80;99.90;;;;;;5071958;28;20024;-74
2021/03/09 05:39:36;;;;;;;140.45;45.38;;;5.80;99.90;;;;;;5048211;28;20031;-76
2021/03/09 05:42:07;;;;;;;152.55;45.88;;;5.80;99.90;;;;;;5071386;28;20074;-72
2021/03/09 05:44:33;;;;;;;130.52;46.25;;;5.90;99.90;;;;;;5065196;28;20104;-73
2021/03/09 05:47:03;;;;;;;115.60;41.75;;;5.80;99.90;;;;;;5074922;28;20032;-70
2021/03/09 05:49:29;;;;;;;132.02;43.90;;;5.80;99.90;;;;;;5074515;28;20040;-70
2021/03/09 05:51:54;;;;;;;138.25;43.70;;;5.90;99.90;;;;;;5075660;28;20041;-72
2021/03/09 05:54:23;;;;;;;109.53;41.10;;;5.90;99.90;;;;;;5066327;28;20099;-72
2021/03/09 05:56:49;;;;;;;97.10;39.83;;;6.00;99.90;;;;;;5051399;28;20077;-71
2021/03/09 05:59:14;;;;;;;116.45;41.67;;;6.10;99.90;;;;;;5063649;28;20024;-72
2021/03/09 06:01:40;;;;;;;99.20;41.08;;;6.10;99.90;;;;;;5061363;28;20465;-71
2021/03/09 06:04:12;;;;;;;104.53;38.33;;;6.10;99.90;;;;;;5064256;28;20519;-71
2021/03/09 06:06:38;;;;;;;101.95;40.47;;;6.20;99.90;;;;;;5065648;28;20051;-71
2021/03/09 06:09:32;;;;;;;94.30;37.25;;;6.20;99.90;;;;;;5059879;28;20574;-72
2021/03/09 06:12:12;;;;;;;109.30;40.58;;;6.20;99.90;;;;;;5061948;28;20123;-70
2021/03/09 06:14:56;;;;;;;111.47;43.08;;;6.20;99.90;;;;;;5065552;28;20036;-70
2021/03/09 06:17:39;;;;;;;112.13;41.30;;;6.20;99.90;;;;;;5045886;28;20021;-71
2021/03/09 06:20:17;;;;;;;102.53;40.08;;;6.20;99.90;;;;;;5068221;28;20458;-72
2021/03/09 06:22:44;;;;;;;107.75;39.75;;;6.20;99.90;;;;;;5067458;28;20024;-71
2021/03/09 06:25:14;;;;;;;106.25;40.30;;;6.20;99.90;;;;;;5066136;28;20021;-71
2021/03/09 06:27:40;;;;;;;117.55;40.25;;;6.20;99.90;;;;;;5062528;28;20028;-70
2021/03/09 06:30:10;;;;;;;110.68;40.25;;;6.10;99.90;;;;;;5058091;28;20024;-72
2021/03/09 06:32:41;;;;;;;122.53;41.03;;;6.10;99.90;;;;;;5061245;28;20086;-72
2021/03/09 06:35:24;;;;;;;123.63;41.10;;;6.10;99.90;;;;;;5044958;28;20052;-72
2021/03/09 06:37:49;;;;;;;101.88;38.33;;;6.00;99.90;;;;;;5060580;28;20112;-72
2021/03/09 06:40:16;;;;;;;117.97;39.92;;;6.00;99.90;;;;;;5043681;28;20032;-76
2021/03/09 06:42:42;;;;;;;101.68;36.15;;;6.10;99.90;;;;;;5070794;28;20033;-72
2021/03/09 06:45:15;;;;;;;98.47;35.55;;;6.10;99.90;;;;;;5069835;28;20028;-73
2021/03/09 06:47:48;;;;;;;78.10;31.88;;;6.20;99.90;;;;;;5068304;28;20524;-71
2021/03/09 06:50:13;;;;;;;78.93;30.50;;;6.20;99.90;;;;;;5066636;28;20120;-73
2021/03/09 06:52:40;;;;;;;77.22;28.58;;;6.10;99.90;;;;;;5067947;28;20107;-69
2021/03/09 06:55:09;;;;;;;60.35;24.58;;;6.20;99.90;;;;;;5070397;28;20470;-71
2021/03/09 06:57:36;;;;;;;55.35;21.85;;;6.20;99.90;;;;;;5071037;28;20202;-73
2021/03/09 07:00:06;;;;;;;47.20;21.55;;;6.20;99.90;;;;;;5062983;28;20025;-74
2021/03/09 07:02:32;;;;;;;47.03;18.92;;;6.20;99.90;;;;;;5067649;28;20284;-70
2021/03/09 07:05:12;;;;;;;54.05;19.70;;;6.30;99.90;;;;;;5069503;28;20477;-74
2021/03/09 07:07:40;;;;;;;40.30;17.77;;;6.30;99.90;;;;;;5055642;28;20564;-74
2021/03/09 07:10:11;;;;;;;41.63;16.50;;;6.30;99.90;;;;;;5055574;28;20047;-74
2021/03/09 07:12:38;;;;;;;38.17;16.70;;;6.30;99.90;;;;;;5051957;28;20137;-70
2021/03/09 07:15:08;;;;;;;47.72;17.90;;;6.30;99.90;;;;;;5063793;28;20020;-75
2021/03/09 07:17:35;;;;;;;40.83;16.67;;;6.30;99.90;;;;;;5075181;28;20028;-73
2021/03/09 07:20:03;;;;;;;39.08;16.27;;;6.30;99.90;;;;;;5059573;28;20067;-75
2021/03/09 07:22:30;;;;;;;40.22;14.32;;;6.40;99.90;;;;;;5057659;28;20044;-69
2021/03/09 07:25:06;;;;;;;31.98;14.05;;;6.40;99.90;;;;;;5071201;28;20064;-72
2021/03/09 07:28:02;;;;;;;30.48;13.63;;;6.30;99.90;;;;;;5071043;28;20036;-72
2021/03/09 07:30:30;;;;;;;31.48;12.57;;;6.30;99.90;;;;;;5053314;28;20029;-74
2021/03/09 07:32:58;;;;;;;31.17;13.85;;;6.30;99.90;;;;;;5067917;28;20036;-72
2021/03/09 07:35:29;;;;;;;32.80;13.57;;;6.30;99.90;;;;;;5051280;28;20051;-69
2021/03/09 07:37:57;;;;;;;32.40;12.47;;;6.30;99.90;;;;;;5051692;28;20025;-71
2021/03/09 07:40:26;;;;;;;38.70;13.35;;;6.30;99.90;;;;;;5070803;28;20258;-72
2021/03/09 07:42:52;;;;;;;34.65;13.90;;;6.30;99.90;;;;;;5071298;28;20051;-73
2021/03/09 07:45:23;;;;;;;34.67;14.43;;;6.30;99.90;;;;;;5071273;28;20055;-71
2021/03/09 07:47:55;;;;;;;33.60;13.25;;;6.30;99.90;;;;;;5071632;28;20093;-72
2021/03/09 07:50:22;;;;;;;40.88;13.38;;;6.30;99.90;;;;;;5068485;28;20028;-74
2021/03/09 07:53:04;;;;;;;44.97;14.05;;;6.40;99.90;;;;;;5070685;28;20163;-73
2021/03/09 07:55:30;;;;;;;31.95;12.50;;;6.40;99.90;;;;;;5070792;28;20548;-72
2021/03/09 07:58:19;;;;;;;33.28;12.02;;;6.40;99.90;;;;;;5058494;28;20059;-71
2021/03/09 08:00:52;;;;;;;38.38;12.70;;;6.50;99.90;;;;;;5070453;28;20040;-71
2021/03/09 08:03:20;;;;;;;34.17;11.82;;;6.50;99.90;;;;;;5070873;28;20498;-70
2021/03/09 08:05:51;;;;;;;22.13;10.57;;;6.60;99.90;;;;;;5069689;28;20056;-70
2021/03/09 08:08:39;;;;;;;30.38;10.23;;;6.60;99.90;;;;;;5070090;28;20574;-72
2021/03/09 08:11:06;;;;;;;27.83;10.80;;;6.60;99.90;;;;;;5057042;28;20024;-71
2021/03/09 08:13:32;;;;;;;22.73;9.15;;;6.60;99.90;;;;;;5068518;28;20094;-71
2021/03/09 08:16:19;;;;;;;33.63;10.98;;;6.60;99.90;;;;;;5069772;28;20021;-69
2021/03/09 08:18:46;;;;;;;21.38;9.95;;;6.70;99.90;;;;;;5070161;28;20376;-70
2021/03/09 08:21:12;;;;;;;28.02;10.32;;;6.60;99.90;;;;;;5051638;28;20017;-72
2021/03/09 08:23:37;;;;;;;26.75;9.85;;;6.60;99.90;;;;;;5032350;28;20378;-69
2021/03/09 08:26:04;;;;;;;23.92;9.02;;;6.70;99.90;;;;;;5065455;28;20029;-72
2021/03/09 08:28:33;;;;;;;23.58;10.63;;;6.70;99.90;;;;;;5047855;28;20017;-74
2021/03/09 08:31:14;;;;;;;16.75;9.18;;;6.70;99.90;;;;;;5062833;28;20662;-70
2021/03/09 08:33:54;;;;;;;24.55;9.13;;;6.80;99.90;;;;;;5048528;28;20492;-72
2021/03/09 08:36:20;;;;;;;25.48;8.15;;;6.80;99.90;;;;;;5050389;28;20325;-72
2021/03/09 08:39:13;;;;;;;23.15;9.30;;;6.90;99.90;;;;;;5061665;28;20027;-71
2021/03/09 08:41:39;;;;;;;;;;;6.90;99.90;;;;;;5063451;28;20013;-70
2021/03/09 08:44:17;;;;;;;16.48;7.50;;;6.90;99.90;;;;;;5031821;28;19942;-71
2021/03/09 08:47:07;;;;;;;17.00;7.53;;;6.90;99.90;;;;;;5064436;28;20027;-68
2021/03/09 08:49:36;;;;;;;17.52;8.07;;;6.80;99.90;;;;;;5054950;28;20037;-70
2021/03/09 08:52:03;;;;;;;15.93;7.95;;;6.90;99.90;;;;;;5068755;28;20041;-70
2021/03/09 08:54:48;;;;;;;10.80;6.35;;;6.90;99.90;;;;;;5051118;28;20017;-71
2021/03/09 08:57:21;;;;;;;16.92;6.57;;;6.90;99.90;;;;;;5069219;28;20027;-72
2021/03/09 08:59:47;;;;;;;;;;;6.80;99.90;;;;;;5068779;28;20085;-70
2021/03/09 09:02:22;;;;;;;13.93;6.00;;;6.80;99.90;;;;;;5068475;28;20400;-71
2021/03/09 09:04:59;;;;;;;11.43;5.57;;;6.80;99.90;;;;;;5068650;28;20127;-69
2021/03/09 09:07:36;;;;;;;16.45;7.13;;;6.70;99.90;;;;;;5068967;28;20044;-70
2021/03/09 09:10:19;;;;;;;16.05;7.97;;;6.60;99.90;;;;;;5069307;28;20021;-72
2021/03/09 09:12:49;;;;;;;8.65;5.43;;;6.60;99.90;;;;;;5055521;28;20028;-70
2021/03/09 09:15:20;;;;;;;12.75;6.22;;;6.50;99.90;;;;;;5069499;28;20040;-71
2021/03/09 09:17:57;;;;;;;9.57;5.55;;;6.50;99.90;;;;;;5069230;28;20475;-71
2021/03/09 09:20:44;;;;;;;10.05;6.18;;;6.60;99.90;;;;;;5069254;28;20029;-69
2021/03/09 09:23:18;;;;;;;9.93;5.57;;;6.60;99.90;;;;;;5057891;28;20021;-72
2021/03/09 09:25:56;;;;;;;8.63;5.22;;;6.50;99.90;;;;;;5070067;28;20029;-70
2021/03/09 09:28:31;;;;;;;9.50;4.70;;;6.50;99.90;;;;;;5069757;28;20051;-71
2021/03/09 09:31:22;;;;;;;7.80;4.38;;;6.60;99.90;;;;;;5069232;28;20021;-70
2021/03/09 09:33:55;;;;;;;6.25;4.18;;;6.60;99.90;;;;;;5065323;28;20062;-71
2021/03/09 09:36:21;;;;;;;;;;;6.70;99.90;;;;;;5073750;28;20072;-72
2021/03/09 09:38:54;;;;;;;5.45;4.13;;;6.70;99.90;;;;;;5066168;28;20438;-69
2021/03/09 09:41:21;;;;;;;6.55;4.20;;;6.80;99.90;;;;;;5069345;28;20035;-71
2021/03/09 09:43:47;;;;;;;9.82;3.85;;;6.80;99.90;;;;;;5083164;28;20020;-71
2021/03/09 09:46:31;;;;;;;5.93;2.97;;;6.90;99.90;;;;;;5085598;28;20032;-73
2021/03/09 09:48:57;;;;;;;9.68;2.75;;;6.90;99.90;;;;;;5066047;28;20016;-73
2021/03/09 09:51:25;;;;;;;3.35;2.70;;;7.00;99.90;;;;;;5072988;28;20032;-73
2021/03/09 09:53:54;;;;;;;4.85;2.88;;;7.10;99.90;;;;;;5068830;28;20036;-73
2021/03/09 09:56:20;;;;;;;4.72;2.38;;;7.20;99.90;;;;;;5070529;28;20025;-72
2021/03/09 09:59:00;;;;;;;3.50;2.05;;;7.50;99.90;;;;;;5072861;28;20013;-72
2021/03/09 10:01:32;;;;;;;12.27;2.30;;;7.70;99.90;;;;;;5073407;28;20036;-71
2021/03/09 10:04:11;;;;;;;3.33;1.40;;;7.60;99.90;;;;;;5052103;28;20021;-70
2021/03/09 10:06:38;;;;;;;5.32;2.10;;;7.60;99.90;;;;;;5072658;28;20021;-73
2021/03/09 10:09:13;;;;;;;11.18;1.90;;;7.60;99.90;;;;;;5067945;28;20382;-71
2021/03/09 10:11:49;;;;;;;2.85;1.63;;;7.50;99.90;;;;;;5082409;28;20501;-71
2021/03/09 10:14:16;;;;;;;2.00;1.33;;;7.30;99.90;;;;;;5089081;28;20609;-72
2021/03/09 10:16:43;;;;;;;6.15;1.77;;;7.30;99.90;;;;;;5091536;28;20109;-70
2021/03/09 10:19:10;;;;;;;2.83;1.65;;;7.30;99.90;;;;;;5086959;28;20040;-71
2021/03/09 10:21:38;;;;;;;3.45;1.58;;;7.30;99.90;;;;;;5054218;28;20025;-73
2021/03/09 10:24:06;;;;;;;4.63;1.23;;;7.50;99.90;;;;;;5042125;28;20028;-69
2021/03/09 10:26:37;;;;;;;3.00;2.10;;;7.60;99.90;;;;;;5072429;28;20130;-73
2021/03/09 10:29:23;;;;;;;1.52;1.08;;;7.70;99.90;;;;;;5072228;28;20035;-70
2021/03/09 10:31:49;;;;;;;1.95;0.90;;;7.60;99.90;;;;;;5042136;28;20544;-71
2021/03/09 10:34:17;;;;;;;1.45;0.65;;;7.60;99.90;;;;;;5072920;28;20024;-71
2021/03/09 10:36:46;;;;;;;1.20;1.00;;;7.50;99.90;;;;;;5071961;28;20031;-71
2021/03/09 10:39:12;;;;;;;0.95;0.93;;;7.70;99.90;;;;;;5072193;28;20044;-72
2021/03/09 10:41:38;;;;;;;0.93;0.93;;;7.70;99.90;;;;;;5070352;28;20341;-70
2021/03/09 10:44:04;;;;;;;3.30;0.93;;;7.60;99.90;;;;;;5071886;28;20428;-70
2021/03/09 10:46:34;;;;;;;2.47;0.80;;;7.60;99.90;;;;;;5041976;28;20025;-69
2021/03/09 10:48:59;;;;;;;2.13;1.02;;;7.60;99.90;;;;;;5072097;28;20017;-71
2021/03/09 10:51:25;;;;;;;2.33;0.82;;;7.60;99.90;;;;;;5071353;28;20499;-70
2021/03/09 10:53:51;;;;;;;2.03;1.17;;;7.70;99.90;;;;;;5070945;28;20032;-74
2021/03/09 10:56:16;;;;;;;4.93;1.65;;;7.80;99.90;;;;;;5071780;28;20035;-72
2021/03/09 10:58:42;;;;;;;2.95;0.82;;;7.80;99.90;;;;;;5085746;28;20488;-72
2021/03/09 11:01:08;;;;;;;2.67;0.68;;;7.80;99.90;;;;;;5071863;28;20024;-72
2021/03/09 11:03:33;;;;;;;1.42;0.63;;;7.80;99.90;;;;;;5068801;28;20051;-70
2021/03/09 11:05:59;;;;;;;2.15;0.70;;;7.80;99.90;;;;;;5070135;28;20112;-71
2021/03/09 11:08:25;;;;;;;1.52;0.40;;;8.00;99.90;;;;;;5044208;28;20048;-72
2021/03/09 11:10:54;;;;;;;2.25;0.40;;;8.00;99.90;;;;;;5056564;28;20029;-70
2021/03/09 11:13:20;;;;;;;0.35;0.32;;;8.00;99.90;;;;;;5071743;28;20480;-73
2021/03/09 11:15:46;;;;;;;2.15;0.95;;;7.90;99.90;;;;;;5070421;28;20107;-71
2021/03/09 11:18:12;;;;;;;4.35;0.65;;;7.90;99.90;;;;;;5052943;28;20111;-70
2021/03/09 11:20:40;;;;;;;5.28;0.82;;;8.00;99.90;;;;;;5071128;28;20106;-71
2021/03/09 11:23:06;;;;;;;0.63;0.63;;;8.10;99.90;;;;;;5069424;28;20111;-71
2021/03/09 11:25:33;;;;;;;0.73;0.40;;;8.20;99.90;;;;;;5071341;28;20117;-70
2021/03/09 11:27:59;;;;;;;1.23;0.35;;;8.10;99.90;;;;;;5087875;28;20045;-72
2021/03/09 11:30:24;;;;;;;3.25;0.50;;;8.20;99.90;;;;;;5091080;28;20028;-71
2021/03/09 11:32:50;;;;;;;0.90;0.28;;;8.30;99.90;;;;;;5070519;28;20036;-72
2021/03/09 11:35:15;;;;;;;1.55;0.40;;;8.40;99.90;;;;;;5077635;28;20377;-69
2021/03/09 11:37:41;;;;;;;0.52;0.35;;;8.40;99.90;;;;;;5068073;28;20033;-73
2021/03/09 11:40:08;;;;;;;0.77;0.28;;;8.40;99.90;;;;;;5072444;28;20036;-71
2021/03/09 11:42:34;;;;;;;0.75;0.32;;;8.20;99.90;;;;;;5068846;28;20028;-73
2021/03/09 11:44:59;;;;;;;0.30;0.30;;;8.20;99.90;;;;;;5035255;28;20020;-70
2021/03/09 11:47:26;;;;;;;0.95;0.25;;;8.20;99.90;;;;;;5060153;28;20029;-69
2021/03/09 11:49:51;;;;;;;0.30;0.30;;;8.20;99.90;;;;;;5068910;28;20101;-70
2021/03/09 11:52:17;;;;;;;0.22;0.22;;;8.30;99.90;;;;;;5064809;28;20096;-73
2021/03/09 11:54:42;;;;;;;2.45;0.22;;;8.30;99.90;;;;;;5052409;28;20107;-74
2021/03/09 11:57:08;;;;;;;0.30;0.20;;;8.30;99.90;;;;;;5070017;28;20021;-72
2021/03/09 11:59:35;;;;;;;0.30;0.20;;;8.30;99.90;;;;;;5070652;28;20443;-74
2021/03/09 12:02:00;;;;;;;1.77;0.20;;;8.30;99.90;;;;;;5085980;28;20103;-69
2021/03/09 12:04:26;;;;;;;1.85;0.35;;;8.10;99.90;;;;;;5061372;28;20111;-72
2021/03/09 12:06:51;;;;;;;0.20;0.20;;;8.10;99.90;;;;;;5076349;28;20068;-70
2021/03/09 12:09:17;;;;;;;0.55;0.40;;;8.00;99.90;;;;;;5062197;28;20020;-67
2021/03/09 12:11:43;;;;;;;1.55;0.32;;;8.10;99.90;;;;;;5085624;28;20651;-72
2021/03/09 12:14:08;;;;;;;3.40;0.68;;;8.20;99.90;;;;;;5077036;28;20493;-72
2021/03/09 12:16:34;;;;;;;3.63;0.57;;;8.20;99.90;;;;;;5083316;28;20035;-70
2021/03/09 12:18:59;;;;;;;2.05;0.40;;;8.20;99.90;;;;;;5089079;28;20087;-71
2021/03/09 12:21:25;;;;;;;8.05;0.70;;;8.20;99.90;;;;;;5079532;28;20090;-71
2021/03/09 12:23:51;;;;;;;1.73;0.50;;;8.10;99.90;;;;;;5065298;28;20561;-70
2021/03/09 12:26:17;;;;;;;1.45;0.25;;;7.90;99.90;;;;;;5018840;28;20116;-70
2021/03/09 12:28:49;;;;;;;1.70;0.38;;;7.90;99.90;;;;;;5171392;27;19911;-60
2021/03/09 12:31:15;;;;;;;1.90;0.25;;;7.80;99.90;;;;;;5150639;27;20392;-60
2021/03/09 12:33:40;;;;;;;4.40;0.30;;;7.80;99.90;;;;;;5144480;27;20051;-62
2021/03/09 12:36:06;;;;;;;1.55;0.30;;;7.80;99.90;;;;;;5149856;27;20027;-59
2021/03/09 12:38:32;;;;;;;1.77;0.88;;;7.90;99.90;;;;;;5148129;27;20026;-60
2021/03/09 12:40:58;;;;;;;0.65;0.40;;;8.00;99.90;;;;;;5148750;27;20015;-60
2021/03/09 12:43:23;;;;;;;3.28;0.40;;;7.90;99.90;;;;;;5141919;27;20098;-59
2021/03/09 12:45:49;;;;;;;0.77;0.30;;;7.90;99.90;;;;;;5150454;27;20102;-59
2021/03/09 12:48:14;;;;;;;0.80;0.57;;;7.70;99.90;;;;;;5147157;27;20311;-59
2021/03/09 12:50:40;;;;;;;0.40;0.40;;;7.70;99.90;;;;;;5150010;27;20100;-60